Time;durP1;ratioP1;P1;durP2;ratioP2;P2;SDS_P1;SDS_P2;PMS_P1;PMS_P2;Temp;Humidity;BMP_temperature;BMP_pressure;BME280_temperature;BME280_humidity;BME280_pressure;Samples;Min_cycle;Max_cycle;Signal;HPM_P1;HPM_P2
2022/12/13 00:00:25;;;;;;;;;;;-2.80;99.90;;;;;;4957676;28;20407;-85
2022/12/13 00:02:52;;;;;;;;;;;-2.80;99.90;;;;;;4977338;28;20012;-79
2022/12/13 00:05:18;;;;;;;;;;;-2.80;99.90;;;;;;4957006;28;19934;-79
2022/12/13 00:07:45;;;;;;;;;;;-2.80;99.90;;;;;;4965953;28;19935;-79
2022/12/13 00:10:14;;;;;;;;;;;-2.80;99.90;;;;;;4966407;28;20374;-78
2022/12/13 00:12:41;;;;;;;;;;;-2.80;99.90;;;;;;4956512;28;20618;-78
2022/12/13 00:15:08;;;;;;;;;;;-2.80;99.90;;;;;;4974419;28;20291;-81
2022/12/13 00:17:35;;;;;;;;;;;-2.90;99.90;;;;;;4973425;28;20003;-82
2022/12/13 00:20:02;;;;;;;;;;;-2.90;99.90;;;;;;4962442;28;19926;-79
2022/12/13 00:22:29;;;;;;;;;;;-2.90;99.90;;;;;;4955239;28;19937;-81
2022/12/13 00:24:56;;;;;;;;;;;-2.90;99.90;;;;;;4958355;28;19941;-80
2022/12/13 00:27:25;;;;;;;;;;;-2.90;99.90;;;;;;4974761;28;19930;-79
2022/12/13 00:29:53;;;;;;;;;;;-2.90;99.90;;;;;;4962322;28;20690;-80
2022/12/13 00:32:20;;;;;;;;;;;-2.90;99.90;;;;;;4955620;28;19957;-82
2022/12/13 00:34:46;;;;;;;;;;;-3.00;99.90;;;;;;4957612;28;19926;-80
2022/12/13 00:37:13;;;;;;;;;;;-3.00;99.90;;;;;;4976082;28;19944;-82
2022/12/13 00:39:40;;;;;;;;;;;-3.00;99.90;;;;;;4960009;28;19934;-80
2022/12/13 00:42:07;;;;;;;;;;;-3.00;99.90;;;;;;4967020;28;20411;-83
2022/12/13 00:44:36;;;;;;;;;;;-3.00;99.90;;;;;;4955145;28;19926;-82
2022/12/13 00:47:03;;;;;;;;;;;-3.00;99.90;;;;;;4956879;28;19926;-82
2022/12/13 00:49:30;;;;;;;;;;;-3.10;99.90;;;;;;4955089;28;20454;-80
2022/12/13 00:51:57;;;;;;;;;;;-3.10;99.90;;;;;;4954353;28;19972;-80
2022/12/13 00:54:24;;;;;;;;;;;-3.10;99.90;;;;;;4972034;28;20397;-82
2022/12/13 00:56:51;;;;;;;;;;;-3.10;99.90;;;;;;4956984;28;19933;-81
2022/12/13 00:59:18;;;;;;;;;;;-3.10;99.90;;;;;;4954896;28;19934;-83
2022/12/13 01:01:46;;;;;;;;;;;-3.10;99.90;;;;;;4975053;28;19969;-82
2022/12/13 01:04:16;;;;;;;;;;;-3.10;99.90;;;;;;4976391;28;19926;-80
2022/12/13 01:06:44;;;;;;;;;;;-3.10;99.90;;;;;;4967226;28;19926;-82
2022/12/13 01:09:15;;;;;;;;;;;-3.10;99.90;;;;;;4966360;28;19934;-80
2022/12/13 01:11:42;;;;;;;;;;;-3.20;99.90;;;;;;4956469;28;19930;-79
2022/12/13 01:14:09;;;;;;;;;;;-3.20;99.90;;;;;;4954827;28;20478;-80
2022/12/13 01:16:38;;;;;;;;;;;-3.30;99.90;;;;;;4955237;28;19930;-82
2022/12/13 01:19:06;;;;;;;;;;;-3.30;99.90;;;;;;4953599;28;19948;-77
2022/12/13 01:21:33;;;;;;;;;;;-3.30;99.90;;;;;;4961845;28;19933;-77
2022/12/13 01:24:00;;;;;;;;;;;-3.30;99.90;;;;;;4954072;28;19926;-79
2022/12/13 01:26:31;;;;;;;;;;;-3.30;99.90;;;;;;4954023;28;19937;-79
2022/12/13 01:28:59;;;;;;;;;;;-3.30;99.90;;;;;;4960001;28;19929;-83
2022/12/13 01:31:26;;;;;;;;;;;-3.30;99.90;;;;;;4955610;28;19981;-79
2022/12/13 01:33:53;;;;;;;;;;;-3.40;99.90;;;;;;4961909;28;19929;-79
2022/12/13 01:36:22;;;;;;;;;;;-3.40;99.90;;;;;;4954187;28;19926;-79
2022/12/13 01:38:49;;;;;;;;;;;-3.40;99.90;;;;;;4971023;28;19934;-81
2022/12/13 01:41:17;;;;;;;;;;;-3.40;99.90;;;;;;4971207;28;19933;-77
2022/12/13 01:43:52;;;;;;;;;;;-3.40;99.90;;;;;;4954131;28;20028;-76
2022/12/13 01:46:19;;;;;;;;;;;-3.40;99.90;;;;;;4969763;28;19929;-79
2022/12/13 01:48:48;;;;;;;;;;;-4.00;99.90;;;;;;4948928;28;19937;-77
2022/12/13 01:51:17;;;;;;;;;;;-3.40;99.90;;;;;;4960648;28;20407;-78
2022/12/13 01:53:46;;;;;;;;;;;-3.40;99.90;;;;;;4971524;28;19927;-77
2022/12/13 01:56:16;;;;;;;;;;;-3.40;99.90;;;;;;4965968;28;19937;-79
2022/12/13 01:58:44;;;;;;;;;;;-3.40;99.90;;;;;;4975370;28;19930;-79
2022/12/13 02:01:10;;;;;;;;;;;-3.50;99.90;;;;;;4960262;28;20025;-77
2022/12/13 02:03:37;;;;;;;;;;;-3.50;99.90;;;;;;4954786;28;20431;-82
2022/12/13 02:06:06;;;;;;;;;;;-3.50;99.90;;;;;;4955719;28;19926;-79
2022/12/13 02:08:33;;;;;;;;;;;-3.50;99.90;;;;;;4960501;28;19929;-79
2022/12/13 02:11:03;;;;;;;;;;;-3.50;99.90;;;;;;4961076;28;19926;-79
2022/12/13 02:13:30;;;;;;;;;;;-3.50;99.90;;;;;;4955715;28;19980;-79
2022/12/13 02:16:01;;;;;;;;;;;-3.60;99.90;;;;;;4959751;28;19958;-78
2022/12/13 02:18:41;;;;;;;;;;;-3.60;99.90;;;;;;4951578;28;19949;-79
2022/12/13 02:21:19;;;;;;;;;;;-3.60;99.90;;;;;;4960456;28;19949;-79
2022/12/13 02:24:05;;;;;;;;;;;-3.60;99.90;;;;;;4955437;28;19934;-81
2022/12/13 02:26:45;;;;;;;;;;;-3.70;99.90;;;;;;4957355;28;19941;-77
2022/12/13 02:29:23;;;;;;;;;;;-3.60;99.90;;;;;;4963091;28;19953;-79
2022/12/13 02:31:54;;;;;;;;;;;-3.60;99.90;;;;;;4959388;28;19930;-81
2022/12/13 02:34:23;;;;;;;;;;;-3.70;99.90;;;;;;4958140;28;20033;-79
2022/12/13 02:36:56;;;;;;;;;;;-3.70;99.90;;;;;;4955608;28;19925;-82
2022/12/13 02:39:24;;;;;;;;;;;-3.70;99.90;;;;;;4956045;28;19933;-80
2022/12/13 02:41:53;;;;;;;;;;;-3.70;99.90;;;;;;4958193;28;20300;-77
2022/12/13 02:44:21;;;;;;;;;;;-3.70;99.90;;;;;;4977679;28;20336;-82
2022/12/13 02:46:51;;;;;;;;;;;-3.70;99.90;;;;;;4956339;28;20396;-80
2022/12/13 02:49:20;;;;;;;;;;;-3.70;99.90;;;;;;4958027;28;20017;-81
2022/12/13 02:51:47;;;;;;;;;;;-3.70;99.90;;;;;;4957889;28;19934;-80
2022/12/13 02:54:14;;;;;;;;;;;-3.70;99.90;;;;;;4958298;28;19930;-79
2022/12/13 02:56:41;;;;;;;;;;;-3.60;99.90;;;;;;4979585;28;19930;-81
2022/12/13 02:59:11;;;;;;;;;;;-3.70;99.90;;;;;;4974188;28;20139;-79
2022/12/13 03:01:48;;;;;;;;;;;-3.70;99.90;;;;;;4962148;28;19965;-78
2022/12/13 03:04:22;;;;;;;;;;;-3.70;99.90;;;;;;4964118;28;19926;-79
2022/12/13 03:06:55;;;;;;;;;;;-3.70;99.90;;;;;;4966916;28;19934;-80
2022/12/13 03:09:27;;;;;;;;;;;-3.80;99.90;;;;;;4959131;28;20390;-78
2022/12/13 03:14:46;;;;;;;;;;;-4.00;99.90;;;;;;4958116;28;20012;-79
2022/12/13 03:17:16;;;;;;;;;;;-4.00;99.90;;;;;;4957725;28;19934;-79
2022/12/13 03:19:44;;;;;;;;;;;-4.00;99.90;;;;;;4960635;28;19936;-79
2022/12/13 03:22:12;;;;;;;;;;;-3.90;99.90;;;;;;4962946;28;19981;-81
2022/12/13 03:24:39;;;;;;;;;;;-3.90;99.90;;;;;;4978328;28;20556;-80
2022/12/13 03:27:06;;;;;;;;;;;-3.90;99.90;;;;;;4959272;28;19930;-78
2022/12/13 03:29:33;;;;;;;;;;;-3.90;99.90;;;;;;4972277;28;19938;-79
2022/12/13 03:32:00;;;;;;;;;;;-3.90;99.90;;;;;;4956044;28;19989;-79
2022/12/13 03:34:27;;;;;;;;;;;-4.00;99.90;;;;;;4973359;28;19953;-79
2022/12/13 03:36:54;;;;;;;;;;;-4.00;99.90;;;;;;4958345;28;19926;-79
2022/12/13 03:39:22;;;;;;;;;;;-3.90;99.90;;;;;;4959976;28;20000;-83
2022/12/13 03:41:49;;;;;;;;;;;-3.90;99.90;;;;;;4957260;28;19946;-79
2022/12/13 03:44:17;;;;;;;;;;;-3.90;99.90;;;;;;4957467;28;20431;-79
2022/12/13 03:46:44;;;;;;;;;;;-3.90;99.90;;;;;;4957332;28;19996;-79
2022/12/13 03:49:11;;;;;;;;;;;-4.00;99.90;;;;;;4967451;28;19949;-81
2022/12/13 03:51:38;;;;;;;;;;;-4.00;99.90;;;;;;4976281;28;20022;-79
2022/12/13 03:54:05;;;;;;;;;;;-4.00;99.90;;;;;;4957623;28;19930;-82
2022/12/13 03:56:33;;;;;;;;;;;-4.00;99.90;;;;;;4958375;28;19933;-79
2022/12/13 03:59:01;;;;;;;;;;;-3.90;99.90;;;;;;4962115;28;19937;-79
2022/12/13 04:01:28;;;;;;;;;;;-3.90;99.90;;;;;;4957488;28;20396;-81
2022/12/13 04:03:55;;;;;;;;;;;-3.90;99.90;;;;;;4963267;28;19926;-77
2022/12/13 04:06:21;;;;;;;;;;;-3.90;99.90;;;;;;4958636;28;19937;-78
2022/12/13 04:08:48;;;;;;;;;;;-3.90;99.90;;;;;;4972095;28;19937;-78
2022/12/13 04:14:01;;;;;;;;;;;-4.00;99.90;;;;;;4954961;28;19926;-79
2022/12/13 04:16:28;;;;;;;;;;;-4.00;99.90;;;;;;4956607;28;19930;-78
2022/12/13 04:18:55;;;;;;;;;;;-4.00;99.90;;;;;;4961159;28;19930;-78
2022/12/13 04:21:22;;;;;;;;;;;-4.00;99.90;;;;;;4954442;28;19934;-79
2022/12/13 04:23:48;;;;;;;;;;;-4.00;99.90;;;;;;4977780;28;20323;-80
2022/12/13 04:26:15;;;;;;;;;;;-4.00;99.90;;;;;;4966722;28;19930;-78
2022/12/13 04:28:42;;;;;;;;;;;-4.00;99.90;;;;;;4956599;28;19930;-78
2022/12/13 04:31:10;;;;;;;;;;;-4.00;99.90;;;;;;4955415;28;20447;-78
2022/12/13 04:33:37;;;;;;;;;;;-4.00;99.90;;;;;;4954096;28;19975;-78
2022/12/13 04:36:05;;;;;;;;;;;-4.00;99.90;;;;;;4971918;28;19937;-79
2022/12/13 04:38:31;;;;;;;;;;;-4.00;99.90;;;;;;4962739;28;19930;-78
2022/12/13 04:41:05;;;;;;;;;;;-2.90;99.90;;;;;;4971746;28;19994;-78
2022/12/13 04:43:33;;;;;;;;;;;-4.00;99.90;;;;;;4963605;28;20280;-78
2022/12/13 04:45:59;;;;;;;;;;;-4.10;99.90;;;;;;4971026;28;19930;-78
2022/12/13 04:48:28;;;;;;;;;;;-4.10;99.90;;;;;;4955371;28;20046;-79
2022/12/13 04:50:55;;;;;;;;;;;-4.10;99.90;;;;;;4964073;28;19941;-79
2022/12/13 04:53:22;;;;;;;;;;;-4.10;99.90;;;;;;4971834;28;19997;-79
2022/12/13 04:55:48;;;;;;;;;;;-4.10;99.90;;;;;;4954639;28;19927;-79
2022/12/13 04:58:15;;;;;;;;;;;-4.10;99.90;;;;;;4955636;28;19959;-78
2022/12/13 05:00:42;;;;;;;;;;;-3.70;99.90;;;;;;4954996;28;19926;-80
2022/12/13 05:03:09;;;;;;;;;;;-4.10;99.90;;;;;;4976551;28;19930;-79
2022/12/13 05:05:40;;;;;;;;;;;-4.10;99.90;;;;;;4958042;28;19997;-82
2022/12/13 05:08:07;;;;;;;;;;;-4.10;99.90;;;;;;4958562;28;19933;-81
2022/12/13 05:10:37;;;;;;;;;;;-4.20;99.90;;;;;;4982488;28;19984;-83
2022/12/13 05:13:05;;;;;;;;;;;-4.20;99.90;;;;;;4954373;28;20386;-79
2022/12/13 05:15:32;;;;;;;;;;;-4.20;99.90;;;;;;4955027;28;20269;-80
2022/12/13 05:18:01;;;;;;;;;;;-4.20;99.90;;;;;;4955880;28;19927;-78
2022/12/13 05:20:27;;;;;;;;;;;-4.20;99.90;;;;;;4961289;28;19984;-78
2022/12/13 05:22:57;;;;;;;;;;;-4.20;99.90;;;;;;4959512;28;19975;-79
2022/12/13 05:25:24;;;;;;;;;;;-4.20;99.90;;;;;;4974834;28;20422;-79
2022/12/13 05:27:51;;;;;;;;;;;-4.20;99.90;;;;;;4988638;28;19929;-79
2022/12/13 05:30:18;;;;;;;;;;;-4.20;99.90;;;;;;4983174;28;19930;-78
2022/12/13 05:32:46;;;;;;;;;;;-4.20;99.90;;;;;;4956841;28;19931;-81
2022/12/13 05:35:16;;;;;;;;;;;-4.20;99.90;;;;;;4958767;28;19930;-81
2022/12/13 05:37:43;;;;;;;;;;;-4.20;99.90;;;;;;4959248;28;20036;-81
2022/12/13 05:40:12;;;;;;;;;;;-4.20;99.90;;;;;;4961686;28;19926;-81
2022/12/13 05:42:39;;;;;;;;;;;-4.30;99.90;;;;;;4961965;28;19930;-81
2022/12/13 05:45:06;;;;;;;;;;;-4.30;99.90;;;;;;4969049;28;20014;-83
2022/12/13 05:47:38;;;;;;;;;;;-4.40;99.90;;;;;;4966283;28;19926;-80
2022/12/13 05:50:06;;;;;;;;;;;-4.40;99.90;;;;;;4980424;28;19932;-82
2022/12/13 05:52:34;;;;;;;;;;;-4.40;99.90;;;;;;4963589;28;20436;-83
2022/12/13 05:55:02;;;;;;;;;;;-4.40;99.90;;;;;;4962287;28;19965;-81
2022/12/13 05:57:31;;;;;;;;;;;-4.40;99.90;;;;;;4964798;28;19934;-81
2022/12/13 05:59:58;;;;;;;;;;;-4.40;99.90;;;;;;4977542;28;19934;-80
2022/12/13 06:02:24;;;;;;;;;;;-4.40;99.90;;;;;;4977965;28;19934;-81
2022/12/13 06:04:51;;;;;;;;;;;-4.50;99.90;;;;;;4974228;28;19947;-78
2022/12/13 06:07:18;;;;;;;;;;;-4.50;99.90;;;;;;4972590;28;20025;-79
2022/12/13 06:09:45;;;;;;;;;;;-4.50;99.90;;;;;;4973093;28;20012;-79
2022/12/13 06:12:14;;;;;;;;;;;-4.60;99.90;;;;;;4972999;28;19932;-81
2022/12/13 06:14:43;;;;;;;;;;;-4.60;99.90;;;;;;4977049;28;19930;-80
2022/12/13 06:17:09;;;;;;;;;;;-4.60;99.90;;;;;;4959951;28;19926;-81
2022/12/13 06:19:36;;;;;;;;;;;-4.50;99.90;;;;;;4962341;28;19926;-80
2022/12/13 06:22:06;;;;;;;;;;;-4.50;99.90;;;;;;4979597;28;19930;-82
2022/12/13 06:24:33;;;;;;;;;;;-4.50;99.90;;;;;;4980399;28;19930;-81
2022/12/13 06:27:00;;;;;;;;;;;-4.50;99.90;;;;;;4979758;28;19937;-81
2022/12/13 06:29:27;;;;;;;;;;;-4.60;99.90;;;;;;4979661;28;19937;-81
2022/12/13 06:31:59;;;;;;;;;;;-4.50;99.90;;;;;;4962284;28;20001;-81
2022/12/13 06:34:26;;;;;;;;;;;-4.60;99.90;;;;;;4961685;28;19926;-81
2022/12/13 06:36:53;;;;;;;;;;;-4.60;99.90;;;;;;4963355;28;19976;-81
2022/12/13 06:39:21;;;;;;;;;;;-4.60;99.90;;;;;;4963044;28;19926;-81
2022/12/13 06:41:48;;;;;;;;;;;-4.60;99.90;;;;;;4962503;28;20032;-82
2022/12/13 06:44:15;;;;;;;;;;;-4.60;99.90;;;;;;4980984;28;19981;-81
2022/12/13 06:46:42;;;;;;;;;;;-4.60;99.90;;;;;;4961727;28;20020;-81
2022/12/13 06:49:10;;;;;;;;;;;-4.70;99.90;;;;;;4961152;28;19926;-82
2022/12/13 06:51:37;;;;;;;;;;;-4.60;99.90;;;;;;4960876;28;19957;-82
2022/12/13 06:54:05;;;;;;;;;;;-4.90;99.90;;;;;;4942524;29;19934;-82
2022/12/13 06:56:32;;;;;;;;;;;-4.70;99.90;;;;;;4943249;29;19914;-82
2022/12/13 06:58:59;;;;;;;;;;;-4.70;99.90;;;;;;4943504;29;20483;-80
2022/12/13 07:01:26;;;;;;;;;;;-4.70;99.90;;;;;;4942614;29;19938;-82
2022/12/13 07:03:54;;;;;;;;;;;-4.70;99.90;;;;;;4942717;29;20131;-81
2022/12/13 07:06:24;;;;;;;;;;;-4.70;99.90;;;;;;4945625;29;19930;-81
2022/12/13 07:08:52;;;;;;;;;;;-4.70;99.90;;;;;;4945459;29;19985;-81
2022/12/13 07:11:19;;;;;;;;;;;-4.70;99.90;;;;;;4947240;29;19935;-82
2022/12/13 07:13:47;;;;;;;;;;;-4.70;99.90;;;;;;4947304;29;19926;-82
2022/12/13 07:16:14;;;;;;;;;;;-4.70;99.90;;;;;;4961561;28;20347;-80
2022/12/13 07:18:44;;;;;;;;;;;-4.70;99.90;;;;;;4963932;28;19994;-80
2022/12/13 07:21:13;;;;;;;;;;;-4.70;99.90;;;;;;4964653;28;19937;-79
2022/12/13 07:23:43;;;;;;;;;;;-4.70;99.90;;;;;;4961772;28;20631;-79
2022/12/13 07:26:10;;;;;;;;;;;-4.70;99.90;;;;;;4963307;28;19930;-79
2022/12/13 07:28:37;;;;;;;;;;;-4.70;99.90;;;;;;4981084;28;19926;-80
2022/12/13 07:31:06;;;;;;;;;;;-4.70;99.90;;;;;;4962764;28;19949;-78
2022/12/13 07:33:36;;;;;;;;;;;-4.70;99.90;;;;;;4978944;28;19984;-78
2022/12/13 07:36:05;;;;;;;;;;;-4.60;99.90;;;;;;4963589;28;19937;-79
2022/12/13 07:38:33;;;;;;;;;;;-4.60;99.90;;;;;;4964606;28;19930;-80
2022/12/13 07:41:05;;;;;;;;;;;-4.60;99.90;;;;;;4963814;28;19926;-80
2022/12/13 07:43:32;;;;;;;;;;;-4.60;99.90;;;;;;4963126;28;19936;-79
2022/12/13 07:45:59;;;;;;;;;;;-4.60;99.90;;;;;;4963841;28;19930;-79
2022/12/13 07:48:26;;;;;;;;;;;-4.60;99.90;;;;;;4961750;28;19953;-79
2022/12/13 07:50:54;;;;;;;;;;;-4.50;99.90;;;;;;4985983;28;19926;-78
2022/12/13 07:53:21;;;;;;;;;;;-4.50;99.90;;;;;;4961690;28;19930;-79
2022/12/13 07:55:48;;;;;;;;;;;-4.40;99.90;;;;;;4962691;28;19926;-78
2022/12/13 07:58:17;;;;;;;;;;;-4.30;99.90;;;;;;4963583;28;20000;-81
2022/12/13 08:00:45;;;;;;;;;;;-4.20;99.90;;;;;;4967381;28;19953;-82
2022/12/13 08:03:12;;;;;;;;;;;-4.10;99.90;;;;;;4989981;28;20336;-80
2022/12/13 08:05:40;;;;;;;;;;;-4.00;99.90;;;;;;4983512;28;20411;-80
2022/12/13 08:08:07;;;;;;;;;;;-3.80;99.90;;;;;;4965020;28;20435;-80
2022/12/13 08:10:34;;;;;;;;;;;-3.80;99.90;;;;;;4981453;28;19925;-79
2022/12/13 08:13:02;;;;;;;;;;;-3.70;99.90;;;;;;4981918;28;19914;-78
2022/12/13 08:15:33;;;;;;;;;;;-3.70;99.90;;;;;;4991060;28;19996;-80
2022/12/13 08:18:03;;;;;;;;;;;-3.60;99.90;;;;;;4976195;28;19941;-81
2022/12/13 08:20:30;;;;;;;;;;;-3.30;99.90;;;;;;4975138;28;20039;-80
2022/12/13 08:22:58;;;;;;;;;;;-3.30;99.90;;;;;;4967767;29;19927;-81
2022/12/13 08:25:25;;;;;;;;;;;-3.20;99.90;;;;;;4957207;29;19961;-81
2022/12/13 08:27:53;;;;;;;;;;;-3.10;99.90;;;;;;4953920;29;19927;-82
2022/12/13 08:30:20;;;;;;;;;;;-3.00;99.90;;;;;;4981464;28;19957;-78
2022/12/13 08:32:50;;;;;;;;;;;-2.80;99.90;;;;;;4967155;28;19957;-81
2022/12/13 08:35:17;;;;;;;;;;;-2.80;99.90;;;;;;4966147;28;19958;-80
2022/12/13 08:37:44;;;;;;;;;;;-2.70;99.90;;;;;;4982650;28;19945;-82
2022/12/13 08:40:11;;;;;;;;;;;-2.60;99.90;;;;;;4965458;28;20292;-81
2022/12/13 08:42:38;;;;;;;;;;;-2.60;99.90;;;;;;4966369;28;19974;-81
2022/12/13 08:45:06;;;;;;;;;;;-2.50;99.90;;;;;;4965720;28;20386;-81
2022/12/13 08:47:32;;;;;;;;;;;-2.50;99.90;;;;;;4965687;28;19930;-83
2022/12/13 08:50:01;;;;;;;;;;;-2.40;99.90;;;;;;4965901;28;19937;-82
2022/12/13 08:52:30;;;;;;;;;;;-2.40;99.90;;;;;;4963600;28;19934;-83
2022/12/13 08:54:57;;;;;;;;;;;-1.20;99.90;;;;;;4963172;28;20399;-82
2022/12/13 08:57:24;;;;;;;;;;;-2.30;99.90;;;;;;4962209;28;19930;-82
2022/12/13 08:59:50;;;;;;;;;;;-2.20;99.90;;;;;;4986279;28;19926;-82
2022/12/13 09:02:18;;;;;;;;;;;-2.10;99.90;;;;;;4970357;28;19924;-81
2022/12/13 09:04:45;;;;;;;;;;;-1.90;99.90;;;;;;4975535;28;19926;-82
2022/12/13 09:07:14;;;;;;;;;;;-1.90;99.90;;;;;;4980693;28;19930;-82
2022/12/13 09:09:41;;;;;;;;;;;-1.70;99.90;;;;;;4960178;28;20292;-82
2022/12/13 09:12:08;;;;;;;;;;;-1.70;99.90;;;;;;4992027;28;19936;-82
2022/12/13 09:14:35;;;;;;;;;;;-1.60;99.90;;;;;;4966682;28;20396;-81
2022/12/13 09:17:02;;;;;;;;;;;-1.50;99.90;;;;;;4978477;28;19929;-82
2022/12/13 09:19:30;;;;;;;;;;;-1.40;99.90;;;;;;4962480;28;20028;-81
2022/12/13 09:21:57;;;;;;;;;;;-1.30;99.90;;;;;;4964889;28;19926;-82
2022/12/13 09:24:27;;;;;;;;;;;-1.20;99.90;;;;;;4968415;28;19930;-81
2022/12/13 09:26:54;;;;;;;;;;;-1.10;99.90;;;;;;4961656;28;19934;-82
2022/12/13 09:29:21;;;;;;;;;;;-1.00;99.90;;;;;;4982067;28;19926;-80
2022/12/13 09:31:48;;;;;;;;;;;-1.00;99.90;;;;;;4978146;28;20024;-82
2022/12/13 09:34:15;;;;;;;;;;;-0.90;99.90;;;;;;4961200;28;20407;-81
2022/12/13 09:36:42;;;;;;;;;;;-0.80;99.90;;;;;;4962722;28;19929;-82
2022/12/13 09:39:10;;;;;;;;;;;-0.80;99.90;;;;;;4989375;28;19930;-81
2022/12/13 09:41:40;;;;;;;;;;;-0.70;99.90;;;;;;4971158;28;19945;-81
2022/12/13 09:44:11;;;;;;;;;;;-0.70;99.90;;;;;;4968024;28;19914;-79
2022/12/13 09:46:40;;;;;;;;;;;-0.70;99.90;;;;;;4968187;28;19937;-81
2022/12/13 09:49:12;;;;;;;;;;;-0.70;99.90;;;;;;4974906;28;19930;-82
2022/12/13 09:51:39;;;;;;;;;;;-0.70;99.90;;;;;;4962147;28;19930;-83
2022/12/13 09:54:06;;;;;;;;;;;-0.70;99.90;;;;;;4977773;28;20637;-80
2022/12/13 09:56:33;;;;;;;;;;;-0.70;99.90;;;;;;4985903;28;20021;-82
2022/12/13 09:59:02;;;;;;;;;;;-0.60;99.90;;;;;;4958762;28;19926;-81
2022/12/13 10:01:29;;;;;;;;;;;-0.50;99.90;;;;;;4963489;28;19930;-80
2022/12/13 10:04:00;;;;;;;;;;;-0.50;99.90;;;;;;4958331;28;20524;-82
2022/12/13 10:06:31;;;;;;;;;;;-0.40;99.90;;;;;;4963001;28;20495;-80
2022/12/13 10:09:00;;;;;;;;;;;-0.20;99.90;;;;;;4970566;28;20281;-80
2022/12/13 10:11:28;;;;;;;;;;;-0.10;99.90;;;;;;4955922;28;20435;-82
2022/12/13 10:13:58;;;;;;;;;;;0.00;99.90;;;;;;4967544;28;20414;-80
2022/12/13 10:16:28;;;;;;;;;;;0.00;99.90;;;;;;4979226;28;20346;-80
2022/12/13 10:18:55;;;;;;;;;;;0.00;99.90;;;;;;4973344;28;19929;-80
2022/12/13 10:21:25;;;;;;;;;;;0.00;99.90;;;;;;4956904;28;19933;-80
2022/12/13 10:23:52;;;;;;;;;;;0.00;99.90;;;;;;4955136;28;19926;-79
2022/12/13 10:26:20;;;;;;;;;;;0.10;99.90;;;;;;4957517;28;19933;-80
2022/12/13 10:28:47;;;;;;;;;;;0.10;99.90;;;;;;4962982;28;19997;-79
2022/12/13 10:31:17;;;;;;;;;;;0.20;99.90;;;;;;4963750;28;19937;-79
2022/12/13 10:33:52;;;;;;;;;;;0.30;99.90;;;;;;4960798;28;19927;-80
2022/12/13 10:36:30;;;;;;;;;;;0.40;99.90;;;;;;4976193;28;19926;-79
2022/12/13 10:38:57;;;;;;;;;;;0.50;99.90;;;;;;4960160;28;19930;-80
2022/12/13 10:41:26;;;;;;;;;;;0.70;99.90;;;;;;4960863;28;19941;-81
2022/12/13 10:44:07;;;;;;;;;;;1.10;99.90;;;;;;4977553;28;19996;-81
2022/12/13 10:46:34;;;;;;;;;;;1.10;99.90;;;;;;4979664;28;19930;-84
2022/12/13 10:49:02;;;;;;;;;;;1.30;99.90;;;;;;4978343;28;19930;-81
2022/12/13 10:51:37;;;;;;;;;;;1.40;99.90;;;;;;4985536;28;19930;-79
2022/12/13 10:54:04;;;;;;;;;;;1.40;99.90;;;;;;4979774;28;20062;-79
2022/12/13 10:56:37;;;;;;;;;;;1.40;99.90;;;;;;4967126;28;19941;-79
2022/12/13 10:59:11;;;;;;;;;;;1.50;99.90;;;;;;4980489;28;19932;-79
2022/12/13 11:01:38;;;;;;;;;;;1.50;99.90;;;;;;4962421;28;19989;-79
2022/12/13 11:04:19;;;;;;;;;;;1.70;99.90;;;;;;4962367;28;20305;-80
2022/12/13 11:06:47;;;;;;;;;;;;;;;;;;4962121;28;19930;-79
2022/12/13 11:09:15;;;;;;;;;;;2.00;99.90;;;;;;4962908;28;19949;-80
2022/12/13 11:11:43;;;;;;;;;;;2.30;99.90;;;;;;4962813;28;19926;-78
2022/12/13 11:14:16;;;;;;;;;;;2.50;99.90;;;;;;4965863;28;19953;-80
2022/12/13 11:16:45;;;;;;;;;;;2.80;99.90;;;;;;4962153;28;20474;-81
2022/12/13 11:19:16;;;;;;;;;;;3.00;99.90;;;;;;4960990;28;19954;-80
2022/12/13 11:21:46;;;;;;;;;;;3.20;99.90;;;;;;4966999;28;19926;-80
2022/12/13 11:24:18;;;;;;;;;;;3.50;99.90;;;;;;4968412;28;19933;-78
2022/12/13 11:26:46;;;;;;;;;;;3.70;99.90;;;;;;4971231;28;19926;-80
2022/12/13 11:29:25;;;;;;;;;;;3.90;99.90;;;;;;4960136;28;20406;-79
2022/12/13 11:31:59;;;;;;;;;;;4.10;99.90;;;;;;4953768;28;19926;-80
2022/12/13 11:34:31;;;;;;;;;;;5.70;99.90;;;;;;4969451;28;19976;-82
2022/12/13 11:37:01;;;;;;;;;;;4.10;99.90;;;;;;4975252;28;19929;-82
2022/12/13 11:39:30;;;;;;;;;;;4.10;99.90;;;;;;4958285;28;20388;-84
2022/12/13 11:41:59;;;;;;;;;;;4.10;99.90;;;;;;4962766;28;19993;-78
2022/12/13 11:44:29;;;;;;;;;;;3.90;99.90;;;;;;4967636;28;20426;-80
2022/12/13 11:46:58;;;;;;;;;;;3.90;99.90;;;;;;4962256;28;19984;-82
2022/12/13 11:49:32;;;;;;;;;;;3.90;99.90;;;;;;4962760;28;19934;-80
2022/12/13 11:52:02;;;;;;;;;;;4.00;99.90;;;;;;4963213;28;19930;-79
2022/12/13 11:54:34;;;;;;;;;;;4.20;99.90;;;;;;4963346;28;20016;-79
2022/12/13 11:57:04;;;;;;;;;;;4.40;99.90;;;;;;4989596;28;19936;-79
2022/12/13 11:59:34;;;;;;;;;;;4.50;99.90;;;;;;4967454;28;19949;-81
2022/12/13 12:02:05;;;;;;;;;;;4.60;99.90;;;;;;4971435;28;19937;-82
2022/12/13 12:04:38;;;;;;;;;;;4.80;99.90;;;;;;4969770;28;20013;-79
2022/12/13 12:07:10;;;;;;;;;;;4.90;99.90;;;;;;4977248;28;19930;-81
2022/12/13 12:09:39;;;;;;;;;;;5.10;99.90;;;;;;4971501;28;20229;-81
2022/12/13 12:12:07;;;;;;;;;;;5.30;99.90;;;;;;4995955;28;19944;-78
2022/12/13 12:14:37;;;;;;;;;;;5.50;99.90;;;;;;4967372;28;19973;-80
2022/12/13 12:17:05;;;;;;;;;;;5.70;99.90;;;;;;4964795;28;20013;-78
2022/12/13 12:19:35;;;;;;;;;;;5.90;99.90;;;;;;4952097;28;20388;-79
2022/12/13 12:22:14;;;;;;;;;;;6.00;99.90;;;;;;4955535;28;19941;-81
2022/12/13 12:24:47;;;;;;;;;;;6.00;99.90;;;;;;4972523;28;19934;-81
2022/12/13 12:27:19;;;;;;;;;;;6.00;99.90;;;;;;4956186;28;19926;-80
2022/12/13 12:29:53;;;;;;;;;;;6.00;99.90;;;;;;4959616;28;19936;-81
2022/12/13 12:32:26;;;;;;;;;;;6.00;99.90;;;;;;4956140;28;20360;-82
2022/12/13 12:34:56;;;;;;;;;;;6.10;99.90;;;;;;4963182;28;19942;-82
2022/12/13 12:37:29;;;;;;;;;;;6.00;99.90;;;;;;4955633;28;20352;-79
2022/12/13 12:40:02;;;;;;;;;;;6.00;99.90;;;;;;4972607;28;20008;-81
2022/12/13 12:42:38;;;;;;;;;;;5.90;99.90;;;;;;4955235;28;19927;-80
2022/12/13 12:45:13;;;;;;;;;;;5.90;99.90;;;;;;4955458;28;19953;-82
2022/12/13 12:47:43;;;;;;;;;;;5.80;99.90;;;;;;4955305;28;20637;-86
2022/12/13 12:50:25;;;;;;;;;;;5.80;99.90;;;;;;4954893;28;19926;-80
2022/12/13 12:53:00;;;;;;;;;;;5.70;99.90;;;;;;4957502;28;19933;-79
2022/12/13 12:55:30;;;;;;;;;;;5.60;99.90;;;;;;4952815;28;19926;-79
2022/12/13 12:57:59;;;;;;;;;;;5.50;99.90;;;;;;4975756;28;19980;-79
2022/12/13 13:00:28;;;;;;;;;;;5.50;99.90;;;;;;4956385;28;19926;-80
2022/12/13 13:02:58;;;;;;;;;;;5.40;99.90;;;;;;4974568;28;20394;-81
2022/12/13 13:05:30;;;;;;;;;;;5.30;99.90;;;;;;4956786;28;19934;-83
2022/12/13 13:08:00;;;;;;;;;;;5.10;99.90;;;;;;4955947;28;19934;-80
2022/12/13 13:10:28;;;;;;;;;;;5.10;99.90;;;;;;4962590;28;19934;-82
2022/12/13 13:12:55;;;;;;;;;;;5.00;99.90;;;;;;4969282;28;19972;-84
2022/12/13 13:15:41;;;;;;;;;;;5.00;99.90;;;;;;4963337;28;20343;-84
2022/12/13 13:18:29;;;;;;;;;;;4.80;99.90;;;;;;4958964;28;19934;-83
2022/12/13 13:21:10;;;;;;;;;;;4.80;99.90;;;;;;4966642;28;19926;-82
2022/12/13 13:23:39;;;;;;;;;;;4.70;99.90;;;;;;4956524;28;19984;-80
2022/12/13 13:26:06;;;;;;;;;;;4.60;99.90;;;;;;4962578;28;20072;-83
2022/12/13 13:28:33;;;;;;;;;;;4.60;99.90;;;;;;4960273;28;19992;-86
2022/12/13 13:31:02;;;;;;;;;;;4.60;99.90;;;;;;4965488;28;19988;-83
2022/12/13 13:33:43;;;;;;;;;;;4.60;99.90;;;;;;4958845;28;19965;-81
2022/12/13 13:36:32;;;;;;;;;;;4.50;99.90;;;;;;4952169;28;19930;-83
2022/12/13 13:39:01;;;;;;;;;;;4.40;99.90;;;;;;4951849;28;19934;-80
2022/12/13 13:41:55;;;;;;;;;;;4.20;99.90;;;;;;4957938;28;19942;-81
2022/12/13 13:44:33;;;;;;;;;;;4.10;99.90;;;;;;4968640;28;20475;-84
2022/12/13 13:47:10;;;;;;;;;;;4.00;99.90;;;;;;4965241;28;20021;-83
2022/12/13 13:49:40;;;;;;;;;;;4.00;99.90;;;;;;4958293;28;19961;-84
2022/12/13 13:52:15;;;;;;;;;;;3.90;99.90;;;;;;4976149;28;20422;-84
2022/12/13 13:55:02;;;;;;;;;;;3.90;99.90;;;;;;4959660;28;20024;-80
2022/12/13 13:57:46;;;;;;;;;;;3.90;99.90;;;;;;4992265;28;19930;-80
2022/12/13 14:00:20;;;;;;;;;;;3.80;99.90;;;;;;4967143;28;19932;-79
2022/12/13 14:03:08;;;;;;;;;;;3.80;99.90;;;;;;4952191;28;19930;-79
2022/12/13 14:05:54;;;;;;;;;;;3.80;99.90;;;;;;4938500;28;19930;-82
2022/12/13 14:08:28;;;;;;;;;;;3.60;99.90;;;;;;4953158;28;19927;-79
2022/12/13 14:11:10;;;;;;;;;;;3.60;99.90;;;;;;4963296;28;19945;-82
2022/12/13 14:13:55;;;;;;;;;;;3.60;99.90;;;;;;4968458;28;20051;-82
2022/12/13 14:16:52;;;;;;;;;;;3.50;99.90;;;;;;4949469;28;19941;-81
2022/12/13 14:19:37;;;;;;;;;;;3.40;99.90;;;;;;4892602;29;20294;-80
2022/12/13 14:22:09;;;;;;;;;;;3.30;99.90;;;;;;4949261;28;20020;-82
2022/12/13 14:24:40;;;;;;;;;;;3.20;99.90;;;;;;4957759;28;19937;-80
2022/12/13 14:27:18;;;;;;;;;;;3.10;99.90;;;;;;4961850;28;19930;-80
2022/12/13 14:29:47;;;;;;;;;;;3.00;99.90;;;;;;4968286;28;20384;-81
2022/12/13 14:32:18;;;;;;;;;;;2.90;99.90;;;;;;4957298;28;19930;-80
2022/12/13 14:34:48;;;;;;;;;;;2.80;99.90;;;;;;4974460;28;19992;-82
2022/12/13 14:37:27;;;;;;;;;;;2.80;99.90;;;;;;4984081;28;19954;-83
2022/12/13 14:39:54;;;;;;;;;;;2.70;99.90;;;;;;4959390;28;19926;-80